createdAt,value
2023-03-17T00:04:39.790Z,7.07
2023-03-17T00:09:42.084Z,6.18
2023-03-17T00:14:46.859Z,8.70
2023-03-17T00:19:49.167Z,7.43
2023-03-17T00:24:51.435Z,7.40
2023-03-17T00:29:53.625Z,8.00
2023-03-17T00:34:56.551Z,6.78
2023-03-17T00:39:58.644Z,6.95
2023-03-17T00:45:01.445Z,8.88
2023-03-17T00:50:05.133Z,7.40
2023-03-17T00:55:09.183Z,6.85
2023-03-17T01:00:37.611Z,6.47
2023-03-17T01:05:40.995Z,8.30
2023-03-17T01:10:44.638Z,6.85
2023-03-17T01:15:48.641Z,7.00
2023-03-17T01:20:51.757Z,6.88
2023-03-17T01:25:54.512Z,7.55
2023-03-17T01:30:56.890Z,6.80
2023-03-17T01:35:59.287Z,8.13
2023-03-17T01:41:01.494Z,6.90
2023-03-17T01:46:29.287Z,8.10
2023-03-17T01:51:57.647Z,6.85
2023-03-17T01:57:10.560Z,6.70
2023-03-17T02:02:18.279Z,7.43
2023-03-17T02:07:23.211Z,7.97
2023-03-17T02:12:27.886Z,7.55
2023-03-17T02:17:30.117Z,8.63
2023-03-17T02:22:32.845Z,7.32
2023-03-17T02:27:39.573Z,6.68
2023-03-17T02:32:42.129Z,6.50
2023-03-17T02:37:44.246Z,8.25
2023-03-17T02:42:46.789Z,6.63
2023-03-17T02:47:51.522Z,8.48
2023-03-17T02:52:53.629Z,7.85
2023-03-17T02:57:55.742Z,7.82
2023-03-17T03:02:57.989Z,6.13
2023-03-17T03:08:00.144Z,6.43
2023-03-17T03:13:02.386Z,7.90
2023-03-17T03:18:04.443Z,6.57
2023-03-17T03:23:06.498Z,7.68
2023-03-17T03:28:10.145Z,7.32
2023-03-17T03:33:13.919Z,9.43
2023-03-17T03:38:16.049Z,9.48
2023-03-17T03:43:23.366Z,7.72
2023-03-17T03:48:26.075Z,9.10
2023-03-17T03:53:29.002Z,7.97
2023-03-17T03:58:31.119Z,6.13
2023-03-17T04:03:33.516Z,5.43
2023-03-17T04:08:35.797Z,7.22
2023-03-17T04:13:38.606Z,7.72
2023-03-17T04:18:41.444Z,6.47
2023-03-17T04:23:43.515Z,6.30
2023-03-17T04:28:45.640Z,6.88
2023-03-17T04:33:48.101Z,6.32
2023-03-17T04:38:50.221Z,6.88
2023-03-17T04:43:52.335Z,6.75
2023-03-17T04:48:54.515Z,9.50
2023-03-17T04:53:56.884Z,6.50
2023-03-17T04:58:59.001Z,8.43
2023-03-17T05:04:01.226Z,8.10
2023-03-17T05:09:04.098Z,8.93
2023-03-17T05:14:06.743Z,8.20
2023-03-17T05:19:09.162Z,7.72
2023-03-17T05:24:11.767Z,8.13
2023-03-17T05:29:14.647Z,7.72
2023-03-17T05:34:17.527Z,6.35
2023-03-17T05:39:19.588Z,6.85
2023-03-17T05:44:21.781Z,7.75
2023-03-17T05:49:24.594Z,5.75
2023-03-17T05:54:26.643Z,6.72
2023-03-17T05:59:29.154Z,6.70
2023-03-17T06:04:31.421Z,7.90
2023-03-17T06:09:33.950Z,6.97
2023-03-17T06:14:36.697Z,7.05
2023-03-17T06:19:39.036Z,6.38
2023-03-17T06:24:41.297Z,7.88
2023-03-17T06:29:43.657Z,6.20
2023-03-17T06:34:46.042Z,7.38
2023-03-17T06:39:48.457Z,8.02
2023-03-17T06:44:52.690Z,6.88
2023-03-17T06:49:54.761Z,7.45
2023-03-17T06:54:57.011Z,8.57
2023-03-17T06:59:59.197Z,7.25
2023-03-17T07:05:02.391Z,6.25
2023-03-17T07:10:05.825Z,7.78
2023-03-17T07:15:09.308Z,5.40
2023-03-17T07:20:11.985Z,8.68
2023-03-17T07:25:14.114Z,9.20
2023-03-17T07:30:19.236Z,9.20
2023-03-17T07:35:21.538Z,6.80
2023-03-17T07:40:24.214Z,21.05
2023-03-17T07:45:26.777Z,7.57
2023-03-17T07:50:29.061Z,6.47
2023-03-17T07:55:32.778Z,6.93
2023-03-17T08:00:35.731Z,7.10
2023-03-17T08:05:38.219Z,7.43
2023-03-17T08:10:40.389Z,6.63
2023-03-17T08:15:42.658Z,5.63
2023-03-17T08:20:44.983Z,7.80
2023-03-17T08:25:47.833Z,5.95
2023-03-17T08:30:50.765Z,6.90
2023-03-17T08:35:53.535Z,7.15
2023-03-17T08:41:01.632Z,6.93
2023-03-17T08:46:13.245Z,7.03
2023-03-17T08:51:18.395Z,6.38
2023-03-17T08:56:22.038Z,5.88
2023-03-17T09:01:25.178Z,7.10
2023-03-17T09:06:27.750Z,6.57
2023-03-17T09:11:32.807Z,6.85
2023-03-17T09:16:35.262Z,6.38
2023-03-17T09:21:37.836Z,5.68
2023-03-17T09:26:40.010Z,8.18
2023-03-17T09:31:43.162Z,6.00
2023-03-17T09:36:45.225Z,8.73
2023-03-17T09:42:24.409Z,5.38
2023-03-17T09:47:26.574Z,6.18
2023-03-17T09:52:31.277Z,5.35
2023-03-17T09:57:37.166Z,6.93
2023-03-17T10:02:39.229Z,5.65
2023-03-17T10:07:47.309Z,5.93
2023-03-17T10:13:19.472Z,6.35
2023-03-17T10:18:27.672Z,5.35
2023-03-17T10:23:36.522Z,8.15
2023-03-17T10:28:39.182Z,6.47
2023-03-17T10:33:41.835Z,5.88
2023-03-17T10:38:52.549Z,7.15
2023-03-17T10:43:54.619Z,7.40
2023-03-17T10:49:08.144Z,7.88
2023-03-17T10:54:17.639Z,23.90
2023-03-17T10:59:27.932Z,7.93
2023-03-17T11:04:35.907Z,10.20
2023-03-17T11:09:38.346Z,5.88
2023-03-17T11:14:44.135Z,6.07
2023-03-17T11:20:06.568Z,7.03
2023-03-17T11:25:09.575Z,6.93
2023-03-17T11:30:34.055Z,7.82
2023-03-17T11:35:36.116Z,5.70
2023-03-17T11:40:51.605Z,6.95
2023-03-17T11:46:02.747Z,7.32
2023-03-17T11:51:10.750Z,7.05
2023-03-17T11:56:38.346Z,8.13
2023-03-17T12:02:07.208Z,7.35
2023-03-17T12:07:23.706Z,7.38
2023-03-17T12:12:32.998Z,6.38
2023-03-17T12:17:42.665Z,7.35
2023-03-17T12:22:53.987Z,7.80
2023-03-17T12:28:25.255Z,8.65
2023-03-17T12:33:49.395Z,6.87
2023-03-17T12:39:24.629Z,8.68
2023-03-17T12:44:58.208Z,8.05
2023-03-17T12:50:19.261Z,7.97
2023-03-17T13:01:32.195Z,9.85
2023-03-17T13:06:45.114Z,9.10
2023-03-17T13:18:16.290Z,13.07
2023-03-17T13:23:23.421Z,7.60
2023-03-17T13:28:25.800Z,8.77
2023-03-17T13:33:31.189Z,9.73
2023-03-17T13:38:41.950Z,8.52
2023-03-17T13:43:56.903Z,12.75
2023-03-17T13:49:04.228Z,8.85
2023-03-17T13:54:40.921Z,9.02
2023-03-17T14:00:00.811Z,9.32
2023-03-17T14:05:06.564Z,9.23
2023-03-17T14:10:18.507Z,8.63
2023-03-17T14:15:48.101Z,8.90
2023-03-17T14:20:59.034Z,9.02
2023-03-17T14:26:03.965Z,8.38
2023-03-17T14:31:08.179Z,9.65
2023-03-17T14:36:14.583Z,9.63
2023-03-17T14:41:22.745Z,9.27
2023-03-17T14:46:33.260Z,8.60
2023-03-17T14:51:37.497Z,10.40
2023-03-17T14:56:45.812Z,8.65
2023-03-17T15:01:52.982Z,9.25
2023-03-17T15:06:56.291Z,10.25
2023-03-17T15:12:06.951Z,9.27
2023-03-17T15:17:41.638Z,14.32
2023-03-17T15:22:57.709Z,11.75
2023-03-17T15:28:00.147Z,9.13
2023-03-17T15:33:03.221Z,10.88
2023-03-17T15:38:06.369Z,10.90
2023-03-17T15:43:19.289Z,10.48
2023-03-17T15:48:23.867Z,8.98
2023-03-17T15:53:26.673Z,9.35
2023-03-17T15:58:28.771Z,9.57
2023-03-17T16:03:34.112Z,10.63
2023-03-17T16:08:37.638Z,10.93
2023-03-17T16:13:39.905Z,9.65
2023-03-17T16:18:42.251Z,14.07
2023-03-17T16:23:44.838Z,11.55
2023-03-17T16:28:49.135Z,10.77
2023-03-17T16:33:52.834Z,9.43
2023-03-17T16:38:55.026Z,56.47
2023-03-17T16:44:02.135Z,36.63
2023-03-17T16:49:05.904Z,23.15
2023-03-17T16:54:08.785Z,33.80
2023-03-17T16:59:19.764Z,36.03
2023-03-17T17:04:21.916Z,10.93
2023-03-17T17:09:24.245Z,8.63
2023-03-17T17:14:29.444Z,8.98
2023-03-17T17:19:31.582Z,14.85
2023-03-17T17:24:33.803Z,11.85
2023-03-17T17:29:36.350Z,11.57
2023-03-17T17:34:38.453Z,11.98
2023-03-17T17:39:40.629Z,9.52
2023-03-17T17:44:42.950Z,12.60
2023-03-17T17:49:45.440Z,11.77
2023-03-17T17:54:47.554Z,17.38
2023-03-17T17:59:56.592Z,13.95
2023-03-17T18:05:00.896Z,13.02
2023-03-17T18:10:04.634Z,13.65
2023-03-17T18:15:08.078Z,16.92
2023-03-17T18:20:18.679Z,14.15
2023-03-17T18:25:21.020Z,20.80
2023-03-17T18:30:29.715Z,18.20
2023-03-17T18:35:32.676Z,13.52
2023-03-17T18:40:36.029Z,13.90
2023-03-17T18:45:38.756Z,12.25
2023-03-17T18:50:40.906Z,12.30
2023-03-17T18:55:43.035Z,11.93
2023-03-17T19:00:45.287Z,11.25
2023-03-17T19:05:47.559Z,11.73
2023-03-17T19:10:50.078Z,10.23
2023-03-17T19:15:52.246Z,11.63
2023-03-17T19:20:56.237Z,11.95
2023-03-17T19:25:58.313Z,13.05
2023-03-17T19:31:00.755Z,12.45
2023-03-17T19:36:08.664Z,12.48
2023-03-17T19:41:10.782Z,10.98
2023-03-17T19:46:13.206Z,10.63
2023-03-17T19:51:15.433Z,12.25
2023-03-17T19:56:18.351Z,12.32
2023-03-17T20:01:20.892Z,12.15
2023-03-17T20:06:23.009Z,12.07
2023-03-17T20:11:25.184Z,12.45
2023-03-17T20:16:27.800Z,12.80
2023-03-17T20:21:30.095Z,14.02
2023-03-17T20:26:32.387Z,14.25
2023-03-17T20:31:35.742Z,14.35
2023-03-17T20:36:42.282Z,16.70
2023-03-17T20:41:44.427Z,14.98
2023-03-17T20:46:47.631Z,12.98
2023-03-17T20:51:49.807Z,14.35
2023-03-17T20:56:56.711Z,12.40
2023-03-17T21:01:59.137Z,14.77
2023-03-17T21:07:01.240Z,15.18
2023-03-17T21:12:03.430Z,12.43
2023-03-17T21:17:05.808Z,13.23
2023-03-17T21:22:08.158Z,15.43
2023-03-17T21:27:11.362Z,13.38
2023-03-17T21:32:13.636Z,10.90
2023-03-17T21:37:18.344Z,11.95
2023-03-17T21:42:20.544Z,9.77
2023-03-17T21:47:22.823Z,8.23
2023-03-17T21:52:26.080Z,7.57
2023-03-17T21:57:29.693Z,8.75
2023-03-17T22:02:31.775Z,10.65
2023-03-17T22:07:34.108Z,6.80
2023-03-17T22:12:36.633Z,9.02
2023-03-17T22:17:39.760Z,9.60
2023-03-17T22:22:41.813Z,10.50
2023-03-17T22:27:43.954Z,9.05
2023-03-17T22:32:46.488Z,7.13
2023-03-17T22:37:48.565Z,9.07
2023-03-17T22:42:51.626Z,10.38
2023-03-17T22:47:54.363Z,8.73
2023-03-17T22:52:56.401Z,8.35
2023-03-17T22:57:58.451Z,10.18
2023-03-17T23:03:00.512Z,8.07
2023-03-17T23:08:02.678Z,9.65
2023-03-17T23:13:06.380Z,6.65
2023-03-17T23:18:09.381Z,7.47
2023-03-17T23:23:12.282Z,11.43
2023-03-17T23:28:17.251Z,8.60
2023-03-17T23:33:21.643Z,7.22
2023-03-17T23:38:24.300Z,7.55
2023-03-17T23:43:26.577Z,7.28
2023-03-17T23:48:28.989Z,8.45
2023-03-17T23:53:31.518Z,6.53
2023-03-17T23:58:33.712Z,9.00
